Time;durP1;ratioP1;P1;durP2;ratioP2;P2;SDS_P1;SDS_P2;PMS_P1;PMS_P2;Temp;Humidity;BMP_temperature;BMP_pressure;BME280_temperature;BME280_humidity;BME280_pressure;Samples;Min_cycle;Max_cycle;Signal;HPM_P1;HPM_P2
2023/04/27 00:01:47;;;;;;;9.02;4.47;;;3.20;99.90;;;;;;5040617;28;20045;-84
2023/04/27 00:04:13;;;;;;;7.68;4.53;;;3.10;99.90;;;;;;5052868;28;20044;-84
2023/04/27 00:06:39;;;;;;;9.20;5.22;;;3.10;99.90;;;;;;5042453;28;20055;-84
2023/04/27 00:09:04;;;;;;;8.15;4.43;;;3.20;99.90;;;;;;5036821;28;20036;-84
2023/04/27 00:11:30;;;;;;;7.93;4.95;;;3.30;99.90;;;;;;5044701;28;20059;-84
2023/04/27 00:13:56;;;;;;;9.23;4.93;;;3.30;99.90;;;;;;5050282;28;20071;-84
2023/04/27 00:16:21;;;;;;;11.23;5.22;;;3.30;99.90;;;;;;5033620;28;20128;-84
2023/04/27 00:18:47;;;;;;;10.10;5.15;;;3.30;99.90;;;;;;5046799;28;20043;-84
2023/04/27 00:21:13;;;;;;;8.75;5.32;;;3.30;99.90;;;;;;5050923;28;20033;-84
2023/04/27 00:23:38;;;;;;;8.50;4.60;;;3.30;99.90;;;;;;5033495;28;20060;-84
2023/04/27 00:26:04;;;;;;;8.68;5.18;;;3.60;99.90;;;;;;5064430;28;20033;-84
2023/04/27 00:28:30;;;;;;;7.30;4.80;;;3.40;99.90;;;;;;5033529;28;20049;-84
2023/04/27 00:30:55;;;;;;;7.47;5.05;;;3.40;99.90;;;;;;5034544;28;20124;-84
2023/04/27 00:33:21;;;;;;;7.45;4.70;;;3.50;99.90;;;;;;5065045;28;20475;-84
2023/04/27 00:35:47;;;;;;;8.07;4.82;;;3.50;99.90;;;;;;5047048;28;20111;-84
2023/04/27 00:38:12;;;;;;;9.80;4.70;;;3.50;99.90;;;;;;5053742;28;20092;-84
2023/04/27 00:40:38;;;;;;;8.35;5.07;;;3.60;99.90;;;;;;5070337;28;20036;-84
2023/04/27 00:43:04;;;;;;;7.97;5.00;;;3.50;99.90;;;;;;5039682;28;20032;-84
2023/04/27 00:45:29;;;;;;;7.75;5.50;;;3.60;99.90;;;;;;5070077;28;20404;-84
2023/04/27 00:47:55;;;;;;;10.38;4.53;;;3.60;99.90;;;;;;5070259;28;20045;-84
2023/04/27 00:50:28;;;;;;;7.82;4.82;;;3.60;99.90;;;;;;5046474;28;20081;-84
2023/04/27 00:52:55;;;;;;;8.30;5.10;;;3.50;99.90;;;;;;5064105;28;20048;-84
2023/04/27 00:55:21;;;;;;;7.90;4.50;;;3.50;99.90;;;;;;5069907;28;20087;-84
2023/04/27 00:57:47;;;;;;;6.00;4.30;;;3.50;99.90;;;;;;5061218;28;20192;-85
2023/04/27 01:00:13;;;;;;;8.52;5.00;;;3.50;99.90;;;;;;5033898;28;20264;-84
2023/04/27 01:02:40;;;;;;;8.95;5.22;;;3.50;99.90;;;;;;5047150;28;20033;-84
2023/04/27 01:05:07;;;;;;;7.13;4.57;;;3.50;99.90;;;;;;5062316;28;20068;-85
2023/04/27 01:07:36;;;;;;;8.07;5.18;;;3.50;99.90;;;;;;5069779;28;20437;-84
2023/04/27 01:10:02;;;;;;;9.07;4.80;;;3.50;99.90;;;;;;5058519;28;20049;-84
2023/04/27 01:12:28;;;;;;;8.63;4.65;;;3.40;99.90;;;;;;5033028;28;20041;-84
2023/04/27 01:14:53;;;;;;;6.68;4.57;;;3.40;99.90;;;;;;5042977;28;20048;-85
2023/04/27 01:17:19;;;;;;;8.15;4.40;;;3.40;99.90;;;;;;5055460;28;20508;-84
2023/04/27 01:19:45;;;;;;;8.77;4.70;;;3.30;99.90;;;;;;5060270;28;20504;-84
2023/04/27 01:22:10;;;;;;;9.50;4.90;;;3.20;99.90;;;;;;5043469;28;20553;-84
2023/04/27 01:24:36;;;;;;;10.18;5.30;;;3.20;99.90;;;;;;5058378;28;20032;-85
2023/04/27 01:27:03;;;;;;;6.38;4.75;;;3.60;99.90;;;;;;5073338;28;20045;-85
2023/04/27 01:29:29;;;;;;;10.15;5.00;;;3.10;99.90;;;;;;5056443;28;20028;-84
2023/04/27 01:31:55;;;;;;;6.80;4.90;;;3.10;99.90;;;;;;5073248;28;20093;-84
2023/04/27 01:34:20;;;;;;;7.90;4.60;;;3.00;99.90;;;;;;5073301;28;20048;-84
2023/04/27 01:36:46;;;;;;;7.00;4.70;;;3.00;99.90;;;;;;5056363;28;20488;-85
2023/04/27 01:39:11;;;;;;;6.95;4.38;;;2.90;99.90;;;;;;5060242;28;20036;-84
2023/04/27 01:41:37;;;;;;;7.28;4.43;;;2.80;99.90;;;;;;5036897;28;20051;-84
2023/04/27 01:44:02;;;;;;;8.23;4.80;;;2.80;99.90;;;;;;5036263;28;20120;-84
2023/04/27 01:46:28;;;;;;;8.15;5.28;;;2.80;99.90;;;;;;5070282;28;20032;-85
2023/04/27 01:48:53;;;;;;;7.90;5.20;;;2.80;99.90;;;;;;5055994;28;20044;-84
2023/04/27 01:51:19;;;;;;;6.50;4.95;;;2.80;99.90;;;;;;5056341;28;20437;-84
2023/04/27 01:53:45;;;;;;;7.70;4.88;;;2.70;99.90;;;;;;5049263;28;20045;-84
2023/04/27 01:56:10;;;;;;;8.63;4.97;;;2.60;99.90;;;;;;5049405;28;20098;-85
2023/04/27 01:58:36;;;;;;;7.78;4.90;;;2.60;99.90;;;;;;5057704;28;20072;-84
2023/04/27 02:01:02;;;;;;;8.57;4.82;;;2.90;99.90;;;;;;5043503;28;20064;-84
2023/04/27 02:03:27;;;;;;;7.93;5.30;;;2.50;99.90;;;;;;5042993;28;20124;-84
2023/04/27 02:05:53;;;;;;;7.85;4.80;;;2.40;99.90;;;;;;5066405;28;20033;-84
2023/04/27 02:08:18;;;;;;;9.13;4.88;;;3.00;99.90;;;;;;5063147;28;20044;-85
2023/04/27 02:10:44;;;;;;;7.15;4.65;;;2.40;99.90;;;;;;5069379;28;20492;-84
2023/04/27 02:13:10;;;;;;;7.85;4.95;;;2.30;99.90;;;;;;5044563;28;20534;-84
2023/04/27 02:15:35;;;;;;;7.25;4.72;;;2.40;99.90;;;;;;5055504;28;20094;-85
2023/04/27 02:18:02;;;;;;;10.45;5.07;;;2.40;99.90;;;;;;5066474;28;20040;-84
2023/04/27 02:20:29;;;;;;;7.30;4.70;;;2.30;99.90;;;;;;5036087;28;20056;-84
2023/04/27 02:22:55;;;;;;;6.90;4.70;;;2.20;99.90;;;;;;5035728;28;20033;-84
2023/04/27 02:25:21;;;;;;;7.82;5.05;;;2.20;99.90;;;;;;5035974;28;20063;-85
2023/04/27 02:27:46;;;;;;;6.53;4.40;;;2.10;99.90;;;;;;5052387;28;20073;-84
2023/04/27 02:30:13;;;;;;;6.85;4.43;;;2.00;99.90;;;;;;5055606;28;20079;-84
2023/04/27 02:32:39;;;;;;;7.60;4.78;;;2.00;99.90;;;;;;5055326;28;20043;-83
2023/04/27 02:35:06;;;;;;;7.72;4.40;;;2.00;99.90;;;;;;5064909;28;20076;-84
2023/04/27 02:37:32;;;;;;;6.57;4.30;;;2.00;99.90;;;;;;5051768;28;20082;-84
2023/04/27 02:39:58;;;;;;;6.60;4.20;;;1.90;99.90;;;;;;5049167;28;20036;-84
2023/04/27 02:42:24;;;;;;;6.95;4.68;;;1.90;99.90;;;;;;5051845;28;20119;-84
2023/04/27 02:44:50;;;;;;;6.25;4.40;;;1.90;99.90;;;;;;5052275;28;20045;-83
2023/04/27 02:47:16;;;;;;;5.78;4.38;;;1.90;99.90;;;;;;5045008;28;20048;-84
2023/04/27 02:49:42;;;;;;;8.10;4.75;;;1.80;99.90;;;;;;5053795;28;20083;-84
2023/04/27 02:52:07;;;;;;;6.88;4.72;;;1.80;99.90;;;;;;5053371;28;20052;-84
2023/04/27 02:54:33;;;;;;;7.75;4.80;;;1.70;99.90;;;;;;5051827;28;20122;-85
2023/04/27 02:56:59;;;;;;;7.32;4.53;;;1.70;99.90;;;;;;5069500;28;20036;-84
2023/04/27 02:59:25;;;;;;;7.88;5.38;;;1.70;99.90;;;;;;5042592;28;20446;-84
2023/04/27 03:01:50;;;;;;;7.13;4.93;;;1.70;99.90;;;;;;5055515;28;20067;-84
2023/04/27 03:04:16;;;;;;;6.82;4.70;;;1.90;99.90;;;;;;5065805;28;20036;-84
2023/04/27 03:06:43;;;;;;;8.05;5.40;;;1.70;99.90;;;;;;5063054;28;20182;-84
2023/04/27 03:09:11;;;;;;;9.05;5.38;;;1.70;99.90;;;;;;5057335;28;20037;-84
2023/04/27 03:11:37;;;;;;;9.23;5.07;;;1.80;99.90;;;;;;5055544;28;20044;-83
2023/04/27 03:14:04;;;;;;;7.85;5.10;;;1.80;99.90;;;;;;5069495;28;20056;-83
2023/04/27 03:16:33;;;;;;;7.20;5.15;;;1.60;99.90;;;;;;5061462;28;20036;-83
2023/04/27 03:18:58;;;;;;;8.00;5.43;;;1.70;99.90;;;;;;5057564;28;20135;-84
2023/04/27 03:21:24;;;;;;;8.63;5.38;;;2.10;99.90;;;;;;5065298;28;20045;-84
2023/04/27 03:23:49;;;;;;;9.18;5.00;;;1.60;99.90;;;;;;5064671;28;20040;-84
2023/04/27 03:26:15;;;;;;;7.45;4.90;;;1.60;99.90;;;;;;5058294;28;20075;-83
2023/04/27 03:28:41;;;;;;;9.00;5.50;;;1.50;99.90;;;;;;5061475;28;20515;-83
2023/04/27 03:31:08;;;;;;;9.68;5.68;;;1.50;99.90;;;;;;5052006;28;20052;-83
2023/04/27 03:33:35;;;;;;;8.20;5.38;;;1.50;99.90;;;;;;5052576;28;20189;-84
2023/04/27 03:36:01;;;;;;;8.88;5.22;;;1.60;99.90;;;;;;5052009;28;20045;-83
2023/04/27 03:38:27;;;;;;;10.38;5.28;;;1.70;99.90;;;;;;5041970;28;20076;-83
2023/04/27 03:40:53;;;;;;;7.93;5.07;;;1.80;99.90;;;;;;5059802;28;20044;-82
2023/04/27 03:43:19;;;;;;;9.40;5.05;;;2.20;99.90;;;;;;5036750;28;20088;-83
2023/04/27 03:45:45;;;;;;;8.77;5.45;;;1.70;99.90;;;;;;5053080;28;20048;-83
2023/04/27 03:48:12;;;;;;;8.95;5.63;;;1.50;99.90;;;;;;5052828;28;20040;-82
2023/04/27 03:50:37;;;;;;;7.87;5.40;;;1.40;99.90;;;;;;5053596;28;20460;-82
2023/04/27 03:53:03;;;;;;;8.88;5.32;;;1.40;99.90;;;;;;5053219;28;20048;-82
2023/04/27 03:55:30;;;;;;;11.63;6.17;;;1.40;99.90;;;;;;5056969;28;20033;-82
2023/04/27 03:57:56;;;;;;;9.60;5.93;;;1.30;99.90;;;;;;5064520;28;20041;-82
2023/04/27 04:00:21;;;;;;;11.53;5.97;;;1.80;99.90;;;;;;5053498;28;20048;-81
2023/04/27 04:02:47;;;;;;;12.03;6.00;;;1.20;99.90;;;;;;5053310;28;20036;-82
2023/04/27 04:05:14;;;;;;;9.60;5.93;;;1.20;99.90;;;;;;5053653;28;20047;-83
2023/04/27 04:07:40;;;;;;;10.80;5.77;;;1.10;99.90;;;;;;5052077;28;20037;-82
2023/04/27 04:10:06;;;;;;;12.27;5.80;;;1.20;99.90;;;;;;5053134;28;20059;-82
2023/04/27 04:12:32;;;;;;;11.00;5.97;;;1.10;99.90;;;;;;5036435;28;20041;-81
2023/04/27 04:14:58;;;;;;;10.05;5.68;;;1.10;99.90;;;;;;5052604;28;20041;-82
2023/04/27 04:17:23;;;;;;;10.37;5.50;;;1.10;99.90;;;;;;5035797;28;20037;-82
2023/04/27 04:19:49;;;;;;;9.93;6.40;;;1.40;99.90;;;;;;5051941;28;20063;-82
2023/04/27 04:22:15;;;;;;;10.03;5.43;;;1.30;99.90;;;;;;5035593;28;20097;-84
2023/04/27 04:24:40;;;;;;;15.23;6.50;;;1.20;99.90;;;;;;5051669;28;20041;-82
2023/04/27 04:27:06;;;;;;;8.30;5.93;;;1.30;99.90;;;;;;5052491;28;20110;-81
2023/04/27 04:29:32;;;;;;;8.57;5.83;;;1.40;99.90;;;;;;5051673;28;20116;-82
2023/04/27 04:31:58;;;;;;;11.18;5.90;;;1.40;99.90;;;;;;5051811;28;20163;-82
2023/04/27 04:34:23;;;;;;;8.30;4.90;;;2.00;99.90;;;;;;5053068;28;20038;-82
2023/04/27 04:36:52;;;;;;;8.37;5.63;;;1.40;99.90;;;;;;5054548;28;20105;-83
2023/04/27 04:39:21;;;;;;;7.40;5.43;;;1.40;99.90;;;;;;5051248;28;20041;-84
2023/04/27 04:41:48;;;;;;;9.40;5.67;;;1.40;99.90;;;;;;5051172;28;20109;-82
2023/04/27 04:44:14;;;;;;;9.10;5.30;;;1.50;99.90;;;;;;5051802;28;20077;-82
2023/04/27 04:46:40;;;;;;;8.90;5.67;;;1.50;99.90;;;;;;5051337;28;20044;-82
2023/04/27 04:49:06;;;;;;;10.60;5.97;;;2.20;99.90;;;;;;5035211;28;20079;-82
2023/04/27 04:51:32;;;;;;;8.30;5.30;;;1.60;99.90;;;;;;5055338;28;20049;-83
2023/04/27 04:53:57;;;;;;;10.33;6.10;;;2.40;99.90;;;;;;5056183;28;20049;-83
2023/04/27 04:56:23;;;;;;;9.23;5.90;;;1.80;99.90;;;;;;5066642;28;20044;-82
2023/04/27 04:58:48;;;;;;;8.77;5.85;;;1.80;99.90;;;;;;5041838;28;20087;-82
2023/04/27 05:01:14;;;;;;;10.13;6.63;;;1.90;99.90;;;;;;5055332;28;20381;-83
2023/04/27 05:03:39;;;;;;;13.57;6.40;;;1.80;99.90;;;;;;5055341;28;20566;-83
2023/04/27 05:06:05;;;;;;;8.05;5.68;;;2.60;99.90;;;;;;5056025;28;20077;-82
2023/04/27 05:08:31;;;;;;;10.00;5.77;;;2.00;99.90;;;;;;5039063;28;20140;-82
2023/04/27 05:10:56;;;;;;;10.43;5.73;;;2.10;99.90;;;;;;5055426;28;20147;-82
2023/04/27 05:13:23;;;;;;;8.45;5.30;;;2.10;99.90;;;;;;5055615;28;20052;-82
2023/04/27 05:15:50;;;;;;;11.18;5.55;;;2.90;99.90;;;;;;5056594;28;20045;-81
2023/04/27 05:18:15;;;;;;;8.85;5.28;;;2.30;99.90;;;;;;5054897;28;20045;-82
2023/04/27 05:20:41;;;;;;;9.65;5.50;;;2.40;99.90;;;;;;5056017;28;20515;-82
2023/04/27 05:23:06;;;;;;;9.80;5.70;;;3.10;99.90;;;;;;5056816;28;20040;-82
2023/04/27 05:25:33;;;;;;;8.05;5.60;;;3.10;99.90;;;;;;5055154;28;20045;-83
2023/04/27 05:27:59;;;;;;;12.20;5.60;;;3.00;99.90;;;;;;5056150;28;20044;-81
2023/04/27 05:30:25;;;;;;;8.98;4.97;;;3.00;99.90;;;;;;5058381;28;20048;-83
2023/04/27 05:32:50;;;;;;;8.27;4.78;;;3.20;99.90;;;;;;5055346;28;20037;-83
2023/04/27 05:35:16;;;;;;;8.00;5.00;;;3.40;99.90;;;;;;5054076;28;20112;-83
2023/04/27 05:37:41;;;;;;;8.48;5.05;;;3.50;99.90;;;;;;5054734;28;20094;-83
2023/04/27 05:40:11;;;;;;;8.70;4.93;;;3.50;99.90;;;;;;5054207;28;20037;-83
2023/04/27 05:42:36;;;;;;;6.88;4.63;;;3.70;99.90;;;;;;5054052;28;20037;-83
2023/04/27 05:45:02;;;;;;;7.63;4.90;;;4.30;99.90;;;;;;5054049;28;20048;-84
2023/04/27 05:47:29;;;;;;;5.85;4.63;;;3.80;99.90;;;;;;5054027;28;20080;-84
2023/04/27 05:49:55;;;;;;;5.95;4.00;;;3.90;99.90;;;;;;5054622;28;20089;-83
2023/04/27 05:52:21;;;;;;;7.43;4.20;;;4.40;99.90;;;;;;5054158;28;20045;-83
2023/04/27 05:54:49;;;;;;;6.78;4.25;;;4.10;99.90;;;;;;5053885;28;20033;-83
2023/04/27 05:57:15;;;;;;;8.35;4.40;;;4.20;99.90;;;;;;5069163;28;20041;-83
2023/04/27 05:59:42;;;;;;;8.65;4.32;;;4.50;99.90;;;;;;5056608;28;20405;-83
2023/04/27 06:02:08;;;;;;;9.82;4.78;;;4.30;99.90;;;;;;5055057;28;20408;-83
2023/04/27 06:04:35;;;;;;;6.60;3.83;;;4.50;99.90;;;;;;5056221;28;20106;-83
2023/04/27 06:07:02;;;;;;;6.10;3.83;;;4.50;99.90;;;;;;5054772;28;20103;-83
2023/04/27 06:09:29;;;;;;;5.60;4.10;;;4.60;99.90;;;;;;5056194;28;20045;-83
2023/04/27 06:11:57;;;;;;;9.15;4.25;;;4.70;99.90;;;;;;5055225;28;20083;-83
2023/04/27 06:14:22;;;;;;;5.07;3.60;;;4.70;99.90;;;;;;5056046;28;20041;-84
2023/04/27 06:16:48;;;;;;;6.97;3.80;;;4.80;99.90;;;;;;5054442;28;20044;-83
2023/04/27 06:19:14;;;;;;;7.10;4.10;;;4.90;99.90;;;;;;5055152;28;20111;-83
2023/04/27 06:21:39;;;;;;;6.75;3.75;;;5.00;99.90;;;;;;5056300;28;20122;-82
2023/04/27 06:24:05;;;;;;;6.50;3.88;;;5.10;99.90;;;;;;5053248;28;20059;-83
2023/04/27 06:26:31;;;;;;;6.18;4.05;;;5.20;99.90;;;;;;5055189;28;20049;-83
2023/04/27 06:28:56;;;;;;;9.18;3.40;;;5.40;99.90;;;;;;5057288;28;20045;-83
2023/04/27 06:31:22;;;;;;;7.53;3.38;;;5.50;99.90;;;;;;5054317;28;20040;-82
2023/04/27 06:33:47;;;;;;;5.07;3.45;;;5.70;99.90;;;;;;5053341;28;20049;-82
2023/04/27 06:36:13;;;;;;;6.03;3.40;;;5.70;99.90;;;;;;5052879;28;20049;-83
2023/04/27 06:38:39;;;;;;;5.20;3.50;;;5.80;99.90;;;;;;5053868;28;20076;-83
2023/04/27 06:41:04;;;;;;;5.57;3.17;;;5.90;99.90;;;;;;5054032;28;20098;-83
2023/04/27 06:43:30;;;;;;;4.95;3.05;;;6.00;99.90;;;;;;5053650;28;20080;-83
2023/04/27 06:45:56;;;;;;;4.88;3.33;;;6.20;99.90;;;;;;5052654;28;20116;-83
2023/04/27 06:48:21;;;;;;;4.93;3.03;;;6.30;99.90;;;;;;5052509;28;20116;-83
2023/04/27 06:50:47;;;;;;;5.80;3.25;;;6.50;99.90;;;;;;5054381;28;20041;-83
2023/04/27 06:53:13;;;;;;;5.63;3.30;;;6.60;99.90;;;;;;5053076;28;20052;-83
2023/04/27 06:55:38;;;;;;;5.28;2.90;;;6.70;99.90;;;;;;5058362;28;20056;-82
2023/04/27 06:58:04;;;;;;;4.38;2.88;;;6.70;99.90;;;;;;5063106;28;20056;-83
2023/04/27 07:00:30;;;;;;;7.35;3.00;;;6.90;99.90;;;;;;5052472;28;20056;-83
2023/04/27 07:02:56;;;;;;;5.82;2.50;;;7.00;99.90;;;;;;5052434;28;20147;-83
2023/04/27 07:05:21;;;;;;;5.13;2.30;;;7.10;99.90;;;;;;5052078;28;20068;-83
2023/04/27 07:07:47;;;;;;;3.85;2.08;;;7.20;99.90;;;;;;5053869;28;20040;-82
2023/04/27 07:10:13;;;;;;;5.90;2.85;;;7.40;99.90;;;;;;5052294;28;20572;-83
2023/04/27 07:12:38;;;;;;;4.82;3.05;;;7.40;99.90;;;;;;5052624;28;20427;-83
2023/04/27 07:15:05;;;;;;;4.13;2.83;;;7.60;99.90;;;;;;5052925;28;20033;-82
2023/04/27 07:17:31;;;;;;;3.88;2.70;;;7.70;99.90;;;;;;5051351;28;20048;-83
2023/04/27 07:19:57;;;;;;;5.15;3.25;;;7.80;99.90;;;;;;5053884;28;20068;-83
2023/04/27 07:22:23;;;;;;;8.65;3.15;;;7.90;99.90;;;;;;5052094;28;20496;-83
2023/04/27 07:24:49;;;;;;;5.55;3.10;;;8.00;99.90;;;;;;5053223;28;20036;-83
2023/04/27 07:27:15;;;;;;;7.60;2.90;;;8.00;99.90;;;;;;5052509;28;20076;-83
2023/04/27 07:29:41;;;;;;;4.32;2.60;;;8.10;99.90;;;;;;5051170;28;20048;-82
2023/04/27 07:32:07;;;;;;;5.38;2.83;;;8.20;99.90;;;;;;5051142;28;20572;-82
2023/04/27 07:34:33;;;;;;;5.38;2.60;;;8.40;99.90;;;;;;5052332;28;20036;-83
2023/04/27 07:37:00;;;;;;;5.95;2.85;;;8.50;99.90;;;;;;5052611;28;20381;-83
2023/04/27 07:39:26;;;;;;;4.88;2.70;;;8.70;99.90;;;;;;5051301;28;20049;-82
2023/04/27 07:41:52;;;;;;;3.08;2.00;;;8.80;99.90;;;;;;5050988;28;20505;-83
2023/04/27 07:44:18;;;;;;;3.25;1.85;;;8.90;99.90;;;;;;5052443;28;20233;-83
2023/04/27 07:46:46;;;;;;;5.18;2.42;;;8.90;99.90;;;;;;5051100;28;20167;-83
2023/04/27 07:49:12;;;;;;;3.22;1.95;;;8.90;99.90;;;;;;5051069;28;20047;-83
2023/04/27 07:51:38;;;;;;;3.80;1.80;;;9.10;99.90;;;;;;5051220;28;20199;-82
2023/04/27 07:54:05;;;;;;;6.28;2.10;;;9.20;99.90;;;;;;5051467;28;20060;-83
2023/04/27 07:56:31;;;;;;;4.43;2.30;;;9.30;99.90;;;;;;5063539;28;20137;-83
2023/04/27 07:58:56;;;;;;;3.47;2.05;;;9.50;99.90;;;;;;5053698;28;20037;-83
2023/04/27 08:01:22;;;;;;;3.28;1.92;;;9.50;99.90;;;;;;5050365;28;20094;-83
2023/04/27 08:03:47;;;;;;;3.60;1.80;;;9.50;99.90;;;;;;5051711;28;20113;-83
2023/04/27 08:06:13;;;;;;;4.97;2.10;;;9.60;99.90;;;;;;5051382;28;20451;-83
2023/04/27 08:08:38;;;;;;;3.20;1.60;;;9.60;99.90;;;;;;5052953;28;20045;-82
2023/04/27 08:11:07;;;;;;;3.85;1.90;;;9.60;99.90;;;;;;5052143;28;20033;-82
2023/04/27 08:13:34;;;;;;;2.70;1.50;;;9.70;99.90;;;;;;5052726;28;20045;-83
2023/04/27 08:16:00;;;;;;;5.15;1.70;;;9.70;99.90;;;;;;5051378;28;20098;-83
2023/04/27 08:18:26;;;;;;;4.35;2.15;;;9.70;99.90;;;;;;5050260;28;20500;-83
2023/04/27 08:20:51;;;;;;;3.67;1.95;;;9.80;99.90;;;;;;5049997;28;20053;-83
2023/04/27 08:23:17;;;;;;;4.47;1.73;;;9.80;99.90;;;;;;5050462;28;20041;-84
2023/04/27 08:25:42;;;;;;;2.55;1.60;;;10.10;99.90;;;;;;5055743;28;20040;-84
2023/04/27 08:28:08;;;;;;;4.53;1.80;;;10.20;99.90;;;;;;5057623;28;20036;-83
2023/04/27 08:30:33;;;;;;;3.30;1.80;;;10.20;99.90;;;;;;5056897;28;20052;-83
2023/04/27 08:32:59;;;;;;;3.78;1.70;;;10.30;99.90;;;;;;5056386;28;20048;-84
2023/04/27 08:35:25;;;;;;;3.03;1.77;;;10.50;99.90;;;;;;5056855;28;20044;-83
2023/04/27 08:37:50;;;;;;;4.53;1.88;;;10.60;99.90;;;;;;5056819;28;20408;-82
2023/04/27 08:40:16;;;;;;;3.28;1.60;;;10.70;99.90;;;;;;5056701;28;20040;-83
2023/04/27 08:42:56;;;;;;;3.15;1.60;;;10.80;99.90;;;;;;5057923;28;20558;-84
2023/04/27 08:45:23;;;;;;;3.28;1.80;;;10.80;99.90;;;;;;5056394;28;20071;-84
2023/04/27 08:47:50;;;;;;;4.45;2.00;;;10.80;99.90;;;;;;5058106;28;20040;-83
2023/04/27 08:50:16;;;;;;;4.20;1.92;;;10.80;99.90;;;;;;5059569;28;20437;-82
2023/04/27 08:52:46;;;;;;;5.00;2.28;;;10.90;99.90;;;;;;5057206;28;20052;-82
2023/04/27 08:55:12;;;;;;;5.30;2.10;;;10.80;99.90;;;;;;5058480;28;20065;-82
2023/04/27 08:57:37;;;;;;;3.83;1.85;;;10.90;99.90;;;;;;5070697;28;20071;-83
2023/04/27 09:00:12;;;;;;;3.10;2.00;;;10.90;99.90;;;;;;5056456;28;20098;-82
2023/04/27 09:02:46;;;;;;;5.35;2.40;;;11.10;99.90;;;;;;5057278;28;20049;-83
2023/04/27 09:05:20;;;;;;;4.88;2.00;;;11.10;99.90;;;;;;5059073;28;20459;-81
2023/04/27 09:08:15;;;;;;;3.40;1.88;;;11.10;99.90;;;;;;5057591;28;20484;-81
2023/04/27 09:10:51;;;;;;;4.03;2.20;;;11.20;99.90;;;;;;5054740;28;20110;-82
2023/04/27 09:13:17;;;;;;;5.32;2.10;;;11.30;99.90;;;;;;5058623;28;20342;-82
2023/04/27 09:15:46;;;;;;;3.15;2.00;;;11.40;99.90;;;;;;5057240;28;20090;-81
2023/04/27 09:18:22;;;;;;;4.03;2.42;;;11.40;99.90;;;;;;5057583;28;20041;-80
2023/04/27 09:20:51;;;;;;;6.30;2.70;;;11.50;99.90;;;;;;5058172;28;20037;-80
2023/04/27 09:23:30;;;;;;;6.82;2.17;;;11.40;99.90;;;;;;5060020;28;20033;-81
2023/04/27 09:25:57;;;;;;;3.60;2.60;;;11.50;99.90;;;;;;5057412;28;20125;-81
2023/04/27 09:28:27;;;;;;;6.30;2.72;;;11.30;99.60;;;;;;5056813;28;20044;-81
2023/04/27 09:30:55;;;;;;;5.10;2.50;;;11.30;99.90;;;;;;5057301;28;20041;-81
2023/04/27 09:33:29;;;;;;;5.00;2.35;;;11.30;99.90;;;;;;5056785;28;20045;-80
2023/04/27 09:35:56;;;;;;;5.55;2.70;;;11.40;99.90;;;;;;5057192;28;20037;-79
2023/04/27 09:38:23;;;;;;;5.75;2.92;;;11.60;99.90;;;;;;5053080;28;20060;-79
2023/04/27 09:40:50;;;;;;;4.22;2.70;;;11.70;99.90;;;;;;5053315;28;20041;-79
2023/04/27 09:43:16;;;;;;;4.72;2.70;;;12.00;99.90;;;;;;5052914;28;20037;-79
2023/04/27 09:45:42;;;;;;;5.25;2.80;;;12.20;99.90;;;;;;5053286;28;20044;-79
2023/04/27 09:48:09;;;;;;;6.30;3.72;;;12.20;99.90;;;;;;5053832;28;21629;-79
2023/04/27 09:50:36;;;;;;;5.95;3.13;;;12.20;99.90;;;;;;5053957;28;20106;-79
2023/04/27 09:53:04;;;;;;;4.55;2.63;;;12.50;99.90;;;;;;5054365;28;20175;-79
2023/04/27 09:55:36;;;;;;;6.10;3.53;;;12.60;99.90;;;;;;5057252;28;20036;-79
2023/04/27 09:58:23;;;;;;;4.90;2.90;;;12.60;98.40;;;;;;5063042;28;20061;-79
2023/04/27 10:01:03;;;;;;;4.50;2.88;;;12.70;99.80;;;;;;5052142;28;20072;-79
2023/04/27 10:03:56;;;;;;;6.00;2.88;;;12.70;98.90;;;;;;5052169;28;20045;-78
2023/04/27 10:06:52;;;;;;;5.70;3.90;;;12.80;99.90;;;;;;5051971;28;20132;-78
2023/04/27 10:09:24;;;;;;;7.72;3.90;;;13.00;99.80;;;;;;5051988;28;20041;-78
2023/04/27 10:11:51;;;;;;;8.60;3.67;;;12.90;99.50;;;;;;5053295;28;20393;-78
2023/04/27 10:14:19;;;;;;;8.05;3.20;;;12.80;99.00;;;;;;5051787;28;20033;-78
2023/04/27 10:16:45;;;;;;;5.53;3.67;;;13.00;99.80;;;;;;5051670;28;20111;-78
2023/04/27 10:19:12;;;;;;;8.82;3.72;;;12.90;99.40;;;;;;5052823;28;20033;-77
2023/04/27 10:21:51;;;;;;;7.13;3.70;;;12.90;98.90;;;;;;5053085;28;20374;-76
2023/04/27 10:24:16;;;;;;;7.15;3.70;;;12.70;98.70;;;;;;5052730;28;20124;-76
2023/04/27 10:26:46;;;;;;;6.72;3.70;;;12.40;98.70;;;;;;5051690;28;20123;-77
2023/04/27 10:29:15;;;;;;;6.57;3.80;;;12.40;99.40;;;;;;5051663;28;20378;-76
2023/04/27 10:31:46;;;;;;;8.80;3.67;;;12.40;99.90;;;;;;5051483;28;20147;-77
2023/04/27 10:34:16;;;;;;;7.07;3.55;;;12.30;99.60;;;;;;5051588;28;20124;-76
2023/04/27 10:36:43;;;;;;;8.23;3.70;;;12.50;99.90;;;;;;5052650;28;20048;-76
2023/04/27 10:39:21;;;;;;;5.90;3.40;;;12.50;99.90;;;;;;5051569;28;20468;-77
2023/04/27 10:41:52;;;;;;;6.45;3.97;;;12.60;99.30;;;;;;5051456;28;20500;-76
2023/04/27 10:44:30;;;;;;;7.20;4.25;;;12.60;99.90;;;;;;5051263;28;20041;-76
2023/04/27 10:47:01;;;;;;;6.43;3.70;;;12.50;99.40;;;;;;5051225;28;20049;-76
2023/04/27 10:49:28;;;;;;;6.88;3.83;;;12.70;99.80;;;;;;5050599;28;20045;-76
2023/04/27 10:51:57;;;;;;;8.68;4.07;;;12.90;99.00;;;;;;5034392;28;20051;-76
2023/04/27 10:54:27;;;;;;;7.22;4.40;;;13.00;99.90;;;;;;5050840;28;20041;-77
2023/04/27 10:56:54;;;;;;;7.28;4.65;;;13.00;99.00;;;;;;5064823;28;20037;-76
2023/04/27 10:59:20;;;;;;;7.00;3.70;;;12.90;99.00;;;;;;5052204;28;20611;-76
2023/04/27 11:01:49;;;;;;;7.50;4.03;;;12.80;99.70;;;;;;5052295;28;20037;-76
2023/04/27 11:04:16;;;;;;;6.18;4.10;;;12.80;99.90;;;;;;5050847;28;20037;-77
2023/04/27 11:06:44;;;;;;;7.20;3.70;;;12.60;99.80;;;;;;5051978;28;20396;-77
2023/04/27 11:09:10;;;;;;;6.60;4.35;;;12.70;99.90;;;;;;5050490;28;20044;-76
2023/04/27 11:11:36;;;;;;;7.22;4.10;;;12.60;99.00;;;;;;5051044;28;20517;-77
2023/04/27 11:14:02;;;;;;;6.57;3.75;;;12.50;99.60;;;;;;5050759;28;20052;-77
2023/04/27 11:16:28;;;;;;;11.30;4.88;;;12.40;99.30;;;;;;5051761;28;20055;-77
2023/04/27 11:18:54;;;;;;;9.02;4.00;;;12.30;99.70;;;;;;5051691;28;20041;-77
2023/04/27 11:21:20;;;;;;;5.97;3.88;;;12.40;99.70;;;;;;5050582;28;20048;-77
2023/04/27 11:23:46;;;;;;;7.53;3.80;;;12.80;99.90;;;;;;5051697;28;20045;-78
2023/04/27 11:26:25;;;;;;;6.35;3.67;;;13.10;99.90;;;;;;5050643;28;20124;-78
2023/04/27 11:29:04;;;;;;;7.10;3.80;;;13.20;99.60;;;;;;5050571;28;20089;-78
2023/04/27 11:31:42;;;;;;;7.45;4.50;;;13.30;99.90;;;;;;5050841;28;20459;-78
2023/04/27 11:34:13;;;;;;;7.25;4.03;;;13.10;99.70;;;;;;5050524;28;20048;-78
2023/04/27 11:36:38;;;;;;;5.93;4.25;;;12.80;99.20;;;;;;5050537;28;20508;-79
2023/04/27 11:39:05;;;;;;;7.32;4.60;;;12.60;99.30;;;;;;5050262;28;20045;-78
2023/04/27 11:41:35;;;;;;;7.03;4.25;;;12.40;99.20;;;;;;5051909;28;20037;-79
2023/04/27 11:44:06;;;;;;;7.18;4.22;;;12.20;99.00;;;;;;5051524;28;20053;-79
2023/04/27 11:46:35;;;;;;;6.88;4.28;;;12.20;99.50;;;;;;5051448;28;20063;-79
2023/04/27 11:49:02;;;;;;;8.27;4.53;;;12.00;99.70;;;;;;5050705;28;20404;-79
2023/04/27 11:51:30;;;;;;;9.80;5.05;;;11.90;99.70;;;;;;5052390;28;20037;-79
2023/04/27 11:54:03;;;;;;;7.97;4.55;;;11.80;99.90;;;;;;5051096;28;20072;-79
2023/04/27 11:56:40;;;;;;;7.28;4.63;;;11.70;99.80;;;;;;5046386;28;20049;-80
2023/04/27 11:59:18;;;;;;;8.18;4.53;;;11.60;99.90;;;;;;5051900;28;20060;-80
2023/04/27 12:01:43;;;;;;;8.25;4.65;;;11.60;99.90;;;;;;5051339;28;20060;-80
2023/04/27 12:04:09;;;;;;;9.50;5.00;;;11.60;99.90;;;;;;5053500;28;20126;-81
2023/04/27 12:06:35;;;;;;;6.85;4.43;;;11.70;99.90;;;;;;5054093;28;20053;-81
2023/04/27 12:09:00;;;;;;;7.82;4.50;;;11.70;99.90;;;;;;5052992;28;20052;-82
2023/04/27 12:11:26;;;;;;;8.38;5.40;;;11.70;99.90;;;;;;5052778;28;20056;-81
2023/04/27 12:13:53;;;;;;;9.25;5.50;;;11.70;99.90;;;;;;5051489;28;20124;-81
2023/04/27 12:16:20;;;;;;;9.07;5.05;;;11.70;99.90;;;;;;5050482;28;20102;-82
2023/04/27 12:18:49;;;;;;;10.38;5.50;;;11.60;99.90;;;;;;5050055;28;20052;-82
2023/04/27 12:21:15;;;;;;;11.27;5.78;;;11.60;99.90;;;;;;5051798;28;20440;-82
2023/04/27 12:23:41;;;;;;;8.40;4.70;;;11.50;99.90;;;;;;5051494;28;20044;-83
2023/04/27 12:26:07;;;;;;;6.55;4.75;;;11.40;99.90;;;;;;5050895;28;20033;-83
2023/04/27 12:28:32;;;;;;;7.68;3.67;;;11.50;99.90;;;;;;5051936;28;20033;-83
2023/04/27 12:30:58;;;;;;;6.57;3.30;;;11.50;99.90;;;;;;5050888;28;20037;-83
2023/04/27 12:33:24;;;;;;;6.95;3.70;;;11.60;99.90;;;;;;5050790;28;20037;-83
2023/04/27 12:35:50;;;;;;;5.43;3.42;;;11.50;99.90;;;;;;5050436;28;20044;-83
2023/04/27 12:38:16;;;;;;;5.80;3.45;;;11.60;99.90;;;;;;5050449;28;20041;-84
2023/04/27 12:40:41;;;;;;;6.97;3.60;;;11.60;99.90;;;;;;5052109;28;20491;-83
2023/04/27 12:43:07;;;;;;;6.20;3.78;;;11.60;99.90;;;;;;5050278;28;20064;-85
2023/04/27 12:45:33;;;;;;;7.15;3.78;;;11.60;99.90;;;;;;5051917;28;20033;-84
2023/04/27 12:47:58;;;;;;;5.90;3.63;;;11.80;99.90;;;;;;5051667;28;20349;-85
2023/04/27 12:50:24;;;;;;;6.30;3.72;;;12.20;99.90;;;;;;5050303;28;20080;-84
2023/04/27 12:52:50;;;;;;;8.30;4.18;;;12.60;99.90;;;;;;5049904;28;20048;-84